createdAt,value
2023-08-02T00:01:17.988Z,99.99
2023-08-02T00:04:09.165Z,99.71
2023-08-02T00:06:41.541Z,99.99
2023-08-02T00:09:10.238Z,99.99
2023-08-02T00:11:38.781Z,99.99
2023-08-02T00:14:10.139Z,99.99
2023-08-02T00:16:39.468Z,99.99
2023-08-02T00:19:22.000Z,99.99
2023-08-02T00:21:51.084Z,99.81
2023-08-02T00:24:19.640Z,99.50
2023-08-02T00:26:52.228Z,99.33
2023-08-02T00:29:21.950Z,99.99
2023-08-02T00:31:50.040Z,98.88
2023-08-02T00:34:22.404Z,99.27
2023-08-02T00:36:53.752Z,98.72
2023-08-02T00:39:24.788Z,99.12
2023-08-02T00:41:56.394Z,98.57
2023-08-02T00:44:24.643Z,98.86
2023-08-02T00:46:55.799Z,98.42
2023-08-02T00:49:25.758Z,97.76
2023-08-02T00:51:55.197Z,99.02
2023-08-02T00:54:27.448Z,97.85
2023-08-02T00:56:59.240Z,98.61
2023-08-02T00:59:30.973Z,98.36
2023-08-02T01:02:00.917Z,97.94
2023-08-02T01:04:32.378Z,98.65
2023-08-02T01:07:16.820Z,98.29
2023-08-02T01:09:53.044Z,98.84
2023-08-02T01:12:24.007Z,99.14
2023-08-02T01:15:03.206Z,98.66
2023-08-02T01:17:34.071Z,98.50
2023-08-02T01:20:09.943Z,98.74
2023-08-02T01:22:38.762Z,98.89
2023-08-02T01:25:08.243Z,99.12
2023-08-02T01:27:43.803Z,99.50
2023-08-02T01:30:18.152Z,99.78
2023-08-02T01:32:48.475Z,99.99
2023-08-02T01:35:20.513Z,99.99
2023-08-02T01:37:50.735Z,99.96
2023-08-02T01:40:19.642Z,99.99
2023-08-02T01:42:47.821Z,99.92
2023-08-02T01:45:17.319Z,99.99
2023-08-02T01:47:46.124Z,99.99
2023-08-02T01:50:14.485Z,99.92
2023-08-02T01:52:44.283Z,99.99
2023-08-02T01:55:22.818Z,99.99
2023-08-02T01:57:51.380Z,99.93
2023-08-02T02:00:20.370Z,99.80
2023-08-02T02:02:50.961Z,99.99
2023-08-02T02:05:19.980Z,99.99
2023-08-02T02:07:52.389Z,99.85
2023-08-02T02:10:25.406Z,99.82
2023-08-02T02:12:57.068Z,99.94
2023-08-02T02:15:26.702Z,99.07
2023-08-02T02:17:57.294Z,99.58
2023-08-02T02:20:26.529Z,99.52
2023-08-02T02:22:58.694Z,99.31
2023-08-02T02:25:27.089Z,99.74
2023-08-02T02:27:55.624Z,99.68
2023-08-02T02:30:24.406Z,99.43
2023-08-02T02:32:57.008Z,99.24
2023-08-02T02:35:28.825Z,99.71
2023-08-02T02:37:58.947Z,99.47
2023-08-02T02:40:28.533Z,99.44
2023-08-02T02:42:57.410Z,99.99
2023-08-02T02:45:26.235Z,99.99
2023-08-02T02:47:59.124Z,99.76
2023-08-02T02:50:28.577Z,99.99
2023-08-02T02:52:58.861Z,99.99
2023-08-02T02:55:28.489Z,99.63
2023-08-02T02:58:01.216Z,99.91
2023-08-02T03:00:33.962Z,99.99
2023-08-02T03:03:02.470Z,99.65
2023-08-02T03:05:30.848Z,99.75
2023-08-02T03:08:03.076Z,99.94
2023-08-02T03:10:31.522Z,99.99
2023-08-02T03:12:59.773Z,99.90
2023-08-02T03:15:29.121Z,99.75
2023-08-02T03:17:58.438Z,99.16
2023-08-02T03:20:29.415Z,99.15
2023-08-02T03:22:57.823Z,99.82
2023-08-02T03:25:34.124Z,99.99
2023-08-02T03:28:02.579Z,97.85
2023-08-02T03:30:31.305Z,99.56
2023-08-02T03:33:00.091Z,99.54
2023-08-02T03:35:30.575Z,97.96
2023-08-02T03:38:00.062Z,98.22
2023-08-02T03:40:33.527Z,99.33
2023-08-02T03:43:02.142Z,99.82
2023-08-02T03:45:30.728Z,98.66
2023-08-02T03:48:02.621Z,99.51
2023-08-02T03:50:31.234Z,99.72
2023-08-02T03:53:03.750Z,99.21
2023-08-02T03:55:36.358Z,99.20
2023-08-02T03:58:05.047Z,99.17
2023-08-02T04:00:33.991Z,99.34
2023-08-02T04:03:03.330Z,99.85
2023-08-02T04:05:32.563Z,99.99
2023-08-02T04:08:01.497Z,99.95
2023-08-02T04:10:37.124Z,99.90
2023-08-02T04:13:05.733Z,98.86
2023-08-02T04:15:35.772Z,99.11
2023-08-02T04:18:05.111Z,98.79
2023-08-02T04:20:40.178Z,99.15
2023-08-02T04:23:14.051Z,99.53
2023-08-02T04:25:46.398Z,99.13
2023-08-02T04:28:17.272Z,99.65
2023-08-02T04:30:51.547Z,98.86
2023-08-02T04:33:20.257Z,98.93
2023-08-02T04:35:49.073Z,98.88
2023-08-02T04:38:19.458Z,98.55
2023-08-02T04:40:55.220Z,97.90
2023-08-02T04:43:23.863Z,98.73
2023-08-02T04:45:54.581Z,97.82
2023-08-02T04:48:22.900Z,98.47
2023-08-02T04:50:51.880Z,98.65
2023-08-02T04:53:23.244Z,98.49
2023-08-02T04:55:55.705Z,99.04
2023-08-02T04:58:25.125Z,98.60
2023-08-02T05:00:53.877Z,98.61
2023-08-02T05:03:28.300Z,98.56
2023-08-02T05:06:00.344Z,98.64
2023-08-02T05:08:40.325Z,98.64
2023-08-02T05:11:12.823Z,98.02
2023-08-02T05:13:42.195Z,97.98
2023-08-02T05:16:17.086Z,97.23
2023-08-02T05:18:46.016Z,97.13
2023-08-02T05:21:15.224Z,96.40
2023-08-02T05:23:54.748Z,95.64
2023-08-02T05:26:25.459Z,95.23
2023-08-02T05:29:00.301Z,94.33
2023-08-02T05:31:37.995Z,93.99
2023-08-02T05:34:09.549Z,93.99
2023-08-02T05:36:38.135Z,93.46
2023-08-02T05:39:08.523Z,92.55
2023-08-02T05:41:42.993Z,92.56
2023-08-02T05:44:11.305Z,92.05
2023-08-02T05:46:39.792Z,91.34
2023-08-02T05:49:14.531Z,91.19
2023-08-02T05:51:44.422Z,91.36
2023-08-02T05:54:13.190Z,91.18
2023-08-02T05:56:43.205Z,91.02
2023-08-02T05:59:11.993Z,90.72
2023-08-02T06:01:44.169Z,90.33
2023-08-02T06:04:13.077Z,91.09
2023-08-02T06:06:41.636Z,89.98
2023-08-02T06:09:15.076Z,89.65
2023-08-02T06:11:44.929Z,89.79
2023-08-02T06:14:14.413Z,90.76
2023-08-02T06:16:42.949Z,89.25
2023-08-02T06:19:14.089Z,89.88
2023-08-02T06:21:42.625Z,89.73
2023-08-02T06:24:12.521Z,90.02
2023-08-02T06:26:45.028Z,88.55
2023-08-02T06:29:19.091Z,87.71
2023-08-02T06:31:48.360Z,87.69
2023-08-02T06:34:18.679Z,87.16
2023-08-02T06:36:47.498Z,87.88
2023-08-02T06:39:16.144Z,88.28
2023-08-02T06:41:45.520Z,88.05
2023-08-02T06:44:14.823Z,86.04
2023-08-02T06:46:45.377Z,87.22
2023-08-02T06:49:16.657Z,87.03
2023-08-02T06:51:46.289Z,85.59
2023-08-02T06:54:14.995Z,85.37
2023-08-02T06:56:46.055Z,86.24
2023-08-02T06:59:16.969Z,84.59
2023-08-02T07:01:50.192Z,84.91
2023-08-02T07:04:19.983Z,84.50
2023-08-02T07:06:53.011Z,83.56
2023-08-02T07:09:21.236Z,84.41
2023-08-02T07:11:52.784Z,83.59
2023-08-02T07:14:23.123Z,82.46
2023-08-02T07:16:53.435Z,82.60
2023-08-02T07:19:22.171Z,82.92
2023-08-02T07:21:51.932Z,82.81
2023-08-02T07:24:20.299Z,82.25
2023-08-02T07:26:48.839Z,80.27
2023-08-02T07:29:17.349Z,79.67
2023-08-02T07:31:45.923Z,78.73
2023-08-02T07:34:16.022Z,79.50
2023-08-02T07:36:46.984Z,78.01
2023-08-02T07:39:17.717Z,77.50
2023-08-02T07:41:46.224Z,77.00
2023-08-02T07:44:19.733Z,76.92
2023-08-02T07:46:49.238Z,74.74
2023-08-02T07:49:19.156Z,73.70
2023-08-02T07:51:50.400Z,72.28
2023-08-02T07:54:19.073Z,72.09
2023-08-02T07:56:52.901Z,71.59
2023-08-02T07:59:24.222Z,70.11
2023-08-02T08:01:55.446Z,70.45
2023-08-02T08:04:32.821Z,71.85
2023-08-02T08:07:01.516Z,71.08
2023-08-02T08:09:31.728Z,68.99
2023-08-02T08:12:01.578Z,69.21
2023-08-02T08:14:33.638Z,68.87
2023-08-02T08:17:07.640Z,69.36
2023-08-02T08:19:38.980Z,70.82
2023-08-02T08:22:07.441Z,69.27
2023-08-02T08:24:37.326Z,70.18
2023-08-02T08:27:08.792Z,70.29
2023-08-02T08:29:37.287Z,68.48
2023-08-02T08:32:09.171Z,69.80
2023-08-02T08:34:40.055Z,68.90
2023-08-02T08:37:08.537Z,68.03
2023-08-02T08:39:41.334Z,68.25
2023-08-02T08:42:13.631Z,67.86
2023-08-02T08:44:45.964Z,65.91
2023-08-02T08:47:20.113Z,65.27
2023-08-02T08:49:50.260Z,63.99
2023-08-02T08:52:21.991Z,63.48
2023-08-02T08:54:52.367Z,64.46
2023-08-02T08:57:23.425Z,63.63
2023-08-02T08:59:52.305Z,62.40
2023-08-02T09:02:22.023Z,64.44
2023-08-02T09:04:55.899Z,64.32
2023-08-02T09:07:27.238Z,64.50
2023-08-02T09:09:55.907Z,63.94
2023-08-02T09:12:33.185Z,64.02
2023-08-02T09:15:04.205Z,63.74
2023-08-02T09:17:49.752Z,65.13
2023-08-02T09:20:25.672Z,59.75
2023-08-02T09:22:56.003Z,60.71
2023-08-02T09:25:27.321Z,59.13
2023-08-02T09:27:56.963Z,60.16
2023-08-02T09:30:30.623Z,60.88
2023-08-02T09:33:03.572Z,60.36
2023-08-02T09:35:38.792Z,62.51
2023-08-02T09:38:13.723Z,61.14
2023-08-02T09:41:22.711Z,61.14
2023-08-02T09:43:36.744Z,61.60
2023-08-02T09:46:23.604Z,60.90
2023-08-02T09:48:56.002Z,60.07
2023-08-02T09:51:44.367Z,60.46
2023-08-02T09:54:16.197Z,60.41
2023-08-02T09:56:49.023Z,61.49
2023-08-02T09:59:24.012Z,61.15
2023-08-02T10:01:58.246Z,58.67
2023-08-02T10:04:31.383Z,58.84
2023-08-02T10:07:06.996Z,59.15
2023-08-02T10:09:37.732Z,59.89
2023-08-02T10:12:10.745Z,58.14
2023-08-02T10:14:39.892Z,57.40
2023-08-02T10:17:09.954Z,58.18
2023-08-02T10:19:41.730Z,57.85
2023-08-02T10:22:15.331Z,58.97
2023-08-02T10:24:45.834Z,58.11
2023-08-02T10:27:16.085Z,58.18
2023-08-02T10:29:44.816Z,58.56
2023-08-02T10:32:17.056Z,57.61
2023-08-02T10:34:47.906Z,56.21
2023-08-02T10:37:19.586Z,58.17
2023-08-02T10:39:59.882Z,55.12
2023-08-02T10:42:31.543Z,56.77
2023-08-02T10:45:21.158Z,56.18
2023-08-02T10:47:51.570Z,56.54
2023-08-02T10:50:48.018Z,54.70
2023-08-02T10:53:18.568Z,55.47
2023-08-02T10:56:07.369Z,52.72
2023-08-02T10:58:49.672Z,53.33
2023-08-02T11:01:18.181Z,54.66
2023-08-02T11:03:47.947Z,52.09
2023-08-02T11:06:28.097Z,52.41
2023-08-02T11:08:57.967Z,52.54
2023-08-02T11:11:33.121Z,50.94
2023-08-02T11:14:01.690Z,50.94
2023-08-02T11:19:10.621Z,51.18
2023-08-02T11:21:39.222Z,51.65
2023-08-02T11:24:09.752Z,52.52
2023-08-02T11:29:10.988Z,53.41
2023-08-02T11:31:47.002Z,53.05
2023-08-02T11:34:20.378Z,51.70
2023-08-02T11:36:52.519Z,50.72
2023-08-02T11:39:23.786Z,50.85
2023-08-02T11:42:04.156Z,51.41
2023-08-02T11:44:34.456Z,50.41
2023-08-02T11:47:04.366Z,51.91
2023-08-02T11:49:34.023Z,51.39
2023-08-02T11:52:04.435Z,52.22
2023-08-02T11:54:36.070Z,53.08
2023-08-02T11:57:05.523Z,51.76
2023-08-02T11:59:34.411Z,49.86
2023-08-02T12:02:03.697Z,50.49
2023-08-02T12:04:40.315Z,49.76
2023-08-02T12:07:08.944Z,48.92
2023-08-02T12:09:49.959Z,48.59
2023-08-02T12:12:19.109Z,49.16
2023-08-02T12:14:48.747Z,49.56
2023-08-02T12:17:21.818Z,49.52
2023-08-02T12:19:52.018Z,47.57
2023-08-02T12:22:21.644Z,47.97
2023-08-02T12:27:44.512Z,48.52
2023-08-02T12:30:18.909Z,48.63
2023-08-02T12:32:47.663Z,49.34
2023-08-02T12:35:16.882Z,48.88
2023-08-02T12:37:48.461Z,48.15
2023-08-02T12:40:22.122Z,45.75
2023-08-02T12:43:01.600Z,46.72
2023-08-02T12:45:33.975Z,44.63
2023-08-02T12:48:02.443Z,46.51
2023-08-02T12:50:32.977Z,45.66
2023-08-02T12:53:01.600Z,46.82
2023-08-02T12:55:29.909Z,46.93
2023-08-02T12:58:02.428Z,46.64
2023-08-02T13:00:31.229Z,47.21
2023-08-02T13:02:59.730Z,46.63
2023-08-02T13:05:29.161Z,47.30
2023-08-02T13:07:59.622Z,46.57
2023-08-02T13:10:29.337Z,46.80
2023-08-02T13:13:00.326Z,46.81
2023-08-02T13:15:30.427Z,48.40
2023-08-02T13:18:00.659Z,48.21
2023-08-02T13:20:29.976Z,46.22
2023-08-02T13:22:58.199Z,47.76
2023-08-02T13:25:31.317Z,48.41
2023-08-02T13:28:01.160Z,47.82
2023-08-02T13:30:31.271Z,47.07
2023-08-02T13:33:00.067Z,46.83
2023-08-02T13:35:29.166Z,44.84
2023-08-02T13:38:00.578Z,46.17
2023-08-02T13:40:29.314Z,45.99
2023-08-02T13:42:59.250Z,46.37
2023-08-02T13:45:32.790Z,46.33
2023-08-02T13:48:03.914Z,46.02
2023-08-02T13:50:34.156Z,46.57
2023-08-02T13:53:03.661Z,46.40
2023-08-02T13:55:32.539Z,47.52
2023-08-02T13:58:02.394Z,46.88
2023-08-02T14:00:34.865Z,47.56
2023-08-02T14:03:04.376Z,47.69
2023-08-02T14:05:33.019Z,46.83
2023-08-02T14:08:02.540Z,48.25
2023-08-02T14:10:31.652Z,48.76
2023-08-02T14:13:00.281Z,48.82
2023-08-02T14:15:33.258Z,47.42
2023-08-02T14:18:05.835Z,47.01
2023-08-02T14:20:35.272Z,46.24
2023-08-02T14:23:03.531Z,46.42
2023-08-02T14:25:34.357Z,46.00
2023-08-02T14:28:03.721Z,46.50
2023-08-02T14:30:33.785Z,46.45
2023-08-02T14:33:03.470Z,45.66
2023-08-02T14:35:31.866Z,46.21
2023-08-02T14:38:01.797Z,46.95
2023-08-02T14:40:32.920Z,46.99
2023-08-02T14:43:02.538Z,47.37
2023-08-02T14:45:31.445Z,46.17
2023-08-02T14:48:06.797Z,47.27
2023-08-02T14:50:38.167Z,47.24
2023-08-02T14:53:06.685Z,46.91
2023-08-02T14:55:39.641Z,46.20
2023-08-02T14:58:09.099Z,46.94
2023-08-02T15:00:37.960Z,47.33
2023-08-02T15:03:08.308Z,47.35
2023-08-02T15:05:39.226Z,47.94
2023-08-02T15:08:09.454Z,48.19
2023-08-02T15:10:42.611Z,47.63
2023-08-02T15:13:11.466Z,47.86
2023-08-02T15:15:40.331Z,47.97
2023-08-02T15:18:10.561Z,48.54
2023-08-02T15:20:39.469Z,48.44
2023-08-02T15:23:08.064Z,48.16
2023-08-02T15:25:37.217Z,48.79
2023-08-02T15:28:06.495Z,49.52
2023-08-02T15:30:35.189Z,49.77
2023-08-02T15:33:05.174Z,49.65
2023-08-02T15:35:38.692Z,49.40
2023-08-02T15:38:22.766Z,49.81
2023-08-02T15:41:05.657Z,50.33
2023-08-02T15:43:34.102Z,50.30
2023-08-02T15:46:05.502Z,50.25
2023-08-02T15:48:35.079Z,50.13
2023-08-02T15:51:06.735Z,50.48
2023-08-02T15:53:34.999Z,51.27
2023-08-02T15:56:04.084Z,51.29
2023-08-02T15:58:33.773Z,50.90
2023-08-02T16:01:03.143Z,52.12
2023-08-02T16:03:31.857Z,52.29
2023-08-02T16:06:00.159Z,53.03
2023-08-02T16:08:31.235Z,52.83
2023-08-02T16:11:01.374Z,52.78
2023-08-02T16:13:30.232Z,52.46
2023-08-02T16:15:58.612Z,53.39
2023-08-02T16:18:26.822Z,52.59
2023-08-02T16:20:57.609Z,52.37
2023-08-02T16:23:29.705Z,52.70
2023-08-02T16:26:00.200Z,53.21
2023-08-02T16:28:28.678Z,53.26
2023-08-02T16:30:58.462Z,53.89
2023-08-02T16:33:28.065Z,54.59
2023-08-02T16:36:00.235Z,54.55
2023-08-02T16:38:30.308Z,54.64
2023-08-02T16:41:00.280Z,55.19
2023-08-02T16:43:34.800Z,55.40
2023-08-02T16:46:03.192Z,54.82
2023-08-02T16:48:32.165Z,55.05
2023-08-02T16:51:00.794Z,54.90
2023-08-02T16:53:29.651Z,54.29
2023-08-02T16:55:59.523Z,54.77
2023-08-02T16:58:33.068Z,54.95
2023-08-02T17:01:06.576Z,54.95
2023-08-02T17:03:40.485Z,55.11
2023-08-02T17:06:10.390Z,54.48
2023-08-02T17:08:39.374Z,55.20
2023-08-02T17:11:10.658Z,55.71
2023-08-02T17:13:39.378Z,55.46
2023-08-02T17:16:09.148Z,55.34
2023-08-02T17:18:41.068Z,55.53
2023-08-02T17:21:10.602Z,55.75
2023-08-02T17:23:40.906Z,56.25
2023-08-02T17:26:10.789Z,56.51
2023-08-02T17:28:39.273Z,56.60
2023-08-02T17:31:12.209Z,56.62
2023-08-02T17:33:45.288Z,56.83
2023-08-02T17:36:14.856Z,57.34
2023-08-02T17:38:56.786Z,57.51
2023-08-02T17:41:27.321Z,57.17
2023-08-02T17:43:56.933Z,56.34
2023-08-02T17:46:29.222Z,57.08
2023-08-02T17:49:03.512Z,57.64
2023-08-02T17:51:39.112Z,57.83
2023-08-02T17:54:09.712Z,58.19
2023-08-02T17:56:39.939Z,57.92
2023-08-02T17:59:13.929Z,58.33
2023-08-02T18:01:49.236Z,59.08
2023-08-02T18:04:24.268Z,59.53
2023-08-02T18:06:53.583Z,60.02
2023-08-02T18:09:24.145Z,60.61
2023-08-02T18:11:55.311Z,61.41
2023-08-02T18:14:27.941Z,61.01
2023-08-02T18:16:58.000Z,59.97
2023-08-02T18:19:27.183Z,61.03
2023-08-02T18:21:59.501Z,61.45
2023-08-02T18:24:38.248Z,61.57
2023-08-02T18:27:13.132Z,62.70
2023-08-02T18:29:42.235Z,63.27
2023-08-02T18:32:16.021Z,63.54
2023-08-02T18:34:47.556Z,63.95
2023-08-02T18:37:15.962Z,64.50
2023-08-02T18:39:44.739Z,64.97
2023-08-02T18:42:17.266Z,65.53
2023-08-02T18:44:46.719Z,66.64
2023-08-02T18:47:16.042Z,66.61
2023-08-02T18:49:45.572Z,67.75
2023-08-02T18:52:15.840Z,68.06
2023-08-02T18:54:44.963Z,68.68
2023-08-02T18:57:15.143Z,68.64
2023-08-02T18:59:48.799Z,68.84
2023-08-02T19:02:17.552Z,68.24
2023-08-02T19:04:46.249Z,69.57
2023-08-02T19:07:15.820Z,69.46
2023-08-02T19:09:45.752Z,69.50
2023-08-02T19:12:21.942Z,69.62
2023-08-02T19:14:50.627Z,69.58
2023-08-02T19:17:20.818Z,69.78
2023-08-02T19:19:50.789Z,70.13
2023-08-02T19:22:24.660Z,70.12
2023-08-02T19:24:55.749Z,70.52
2023-08-02T19:27:28.973Z,71.14
2023-08-02T19:30:03.774Z,72.24
2023-08-02T19:32:35.900Z,72.42
2023-08-02T19:35:11.530Z,73.28
2023-08-02T19:37:40.985Z,74.56
2023-08-02T19:40:16.508Z,74.76
2023-08-02T19:42:49.380Z,75.43
2023-08-02T19:45:22.144Z,75.16
2023-08-02T19:47:54.229Z,74.83
2023-08-02T19:50:24.898Z,75.31
2023-08-02T19:52:54.599Z,74.94
2023-08-02T19:55:24.632Z,75.48
2023-08-02T19:57:55.199Z,75.63
2023-08-02T20:00:28.163Z,75.65
2023-08-02T20:02:57.748Z,76.44
2023-08-02T20:05:57.481Z,76.23
2023-08-02T20:08:33.430Z,76.37
2023-08-02T20:11:04.522Z,77.20
2023-08-02T20:13:37.452Z,77.54
2023-08-02T20:16:10.290Z,77.56
2023-08-02T20:18:39.497Z,77.54
2023-08-02T20:21:21.223Z,77.97
2023-08-02T20:23:52.586Z,76.51
2023-08-02T20:26:21.204Z,76.52
2023-08-02T20:28:54.284Z,77.52
2023-08-02T20:31:26.493Z,77.26
2023-08-02T20:34:01.505Z,77.49
2023-08-02T20:36:30.129Z,77.79
2023-08-02T20:38:58.272Z,77.21
2023-08-02T20:41:30.640Z,77.68
2023-08-02T20:44:00.260Z,77.55
2023-08-02T20:46:31.778Z,78.43
2023-08-02T20:49:06.179Z,78.35
2023-08-02T20:51:35.841Z,79.00
2023-08-02T20:54:05.674Z,78.71
2023-08-02T20:56:34.184Z,78.67
2023-08-02T20:59:11.125Z,78.90
2023-08-02T21:01:39.995Z,79.24
2023-08-02T21:04:11.280Z,79.19
2023-08-02T21:06:39.586Z,79.03
2023-08-02T21:09:08.091Z,79.12
2023-08-02T21:11:41.866Z,79.42
2023-08-02T21:14:11.841Z,78.77
2023-08-02T21:16:45.726Z,79.04
2023-08-02T21:19:15.205Z,78.82
2023-08-02T21:21:43.759Z,78.77
2023-08-02T21:24:14.210Z,79.21
2023-08-02T21:26:44.130Z,79.40
2023-08-02T21:29:17.992Z,79.55
2023-08-02T21:31:52.703Z,79.33
2023-08-02T21:34:22.174Z,79.55
2023-08-02T21:36:51.285Z,79.87
2023-08-02T21:39:21.938Z,79.19
2023-08-02T21:41:54.545Z,79.60
2023-08-02T21:44:31.179Z,79.55
2023-08-02T21:47:01.375Z,79.75
2023-08-02T21:49:29.676Z,79.42
2023-08-02T21:52:00.474Z,79.68
2023-08-02T21:54:31.908Z,79.68
2023-08-02T21:57:02.414Z,79.29
2023-08-02T21:59:36.089Z,79.58
2023-08-02T22:02:05.974Z,79.25
2023-08-02T22:04:37.267Z,80.09
2023-08-02T22:07:06.987Z,80.53
2023-08-02T22:09:35.321Z,80.29
2023-08-02T22:12:04.230Z,80.09
2023-08-02T22:14:34.404Z,80.39
2023-08-02T22:17:06.186Z,81.04
2023-08-02T22:19:36.194Z,81.48
2023-08-02T22:22:06.360Z,81.69
2023-08-02T22:24:38.063Z,82.04
2023-08-02T22:27:09.610Z,81.85
2023-08-02T22:29:53.766Z,81.93
2023-08-02T22:32:30.261Z,81.84
2023-08-02T22:34:58.962Z,81.64
2023-08-02T22:37:37.542Z,81.93
2023-08-02T22:40:08.246Z,81.86
2023-08-02T22:42:38.714Z,82.08
2023-08-02T22:45:18.126Z,82.42
2023-08-02T22:47:50.476Z,83.04
2023-08-02T22:52:55.536Z,83.67
2023-08-02T22:55:24.085Z,84.11
2023-08-02T22:57:53.205Z,84.58
2023-08-02T23:00:25.795Z,84.63
2023-08-02T23:02:55.995Z,85.33
2023-08-02T23:05:49.090Z,85.51
2023-08-02T23:08:22.796Z,85.33
2023-08-02T23:10:51.504Z,85.12
2023-08-02T23:13:24.636Z,85.44
2023-08-02T23:15:55.959Z,85.61
2023-08-02T23:18:25.812Z,85.17
2023-08-02T23:21:01.161Z,86.15
2023-08-02T23:23:34.222Z,85.22
2023-08-02T23:26:09.232Z,85.47
2023-08-02T23:28:41.822Z,85.67
2023-08-02T23:31:16.665Z,85.90
2023-08-02T23:33:45.307Z,86.10
2023-08-02T23:36:13.942Z,86.27
2023-08-02T23:38:43.171Z,86.33
2023-08-02T23:41:13.837Z,86.42
2023-08-02T23:43:44.625Z,86.50
2023-08-02T23:46:18.601Z,86.48
2023-08-02T23:48:48.539Z,86.03
2023-08-02T23:51:17.742Z,85.19
2023-08-02T23:53:46.243Z,85.24
2023-08-02T23:56:20.724Z,85.26
2023-08-02T23:58:50.238Z,85.04
